Time,TemperatureF,DewpointF,PressureIn,WindDirection,WindDirectionDegrees,WindSpeedMPH,WindSpeedGustMPH,Humidity,HourlyPrecipIn,Conditions,Clouds,dailyrainin,SolarRadiationWatts/m^2,SoftwareType,DateUTC
2013-07-12 00:02:00,86.0,68.0,29.81,SSW,200,3.0,12.0,56,0.00,,,0.00,0.000000,,2013-07-12 05:02:00,
2013-07-12 00:11:00,86.0,68.0,29.81,SSW,200,3.0,12.0,56,0.00,,,0.00,0.000000,,2013-07-12 05:11:00,
2013-07-12 00:22:00,86.0,69.0,29.81,SSW,205,5.0,14.0,57,0.00,,,0.00,0.000000,,2013-07-12 05:22:00,
2013-07-12 00:32:00,86.0,69.0,29.81,SSW,205,5.0,14.0,57,0.00,,,0.00,0.000000,,2013-07-12 05:32:00,
2013-07-12 00:43:00,85.0,68.0,29.82,SSW,198,7.0,14.0,57,0.00,,,0.00,0.000000,,2013-07-12 05:43:00,
2013-07-12 00:53:00,85.0,69.0,29.82,South,186,2.0,15.0,58,0.00,,,0.00,0.000000,,2013-07-12 05:53:00,
2013-07-12 01:01:00,85.0,69.0,29.82,South,186,2.0,15.0,58,0.00,,,0.00,0.000000,,2013-07-12 06:01:00,
2013-07-12 01:11:00,85.0,69.0,29.83,SSW,199,3.0,12.0,58,0.00,,,0.00,0.000000,,2013-07-12 06:11:00,
2013-07-12 01:22:00,84.0,68.0,29.82,SSW,200,4.0,11.0,59,0.00,,,0.00,0.000000,,2013-07-12 06:22:00,
2013-07-12 01:32:00,84.0,68.0,29.82,SSW,200,4.0,11.0,59,0.00,,,0.00,0.000000,,2013-07-12 06:32:00,
2013-07-12 01:42:00,84.0,68.0,29.82,SSW,194,3.0,11.0,59,0.00,,,0.00,0.000000,,2013-07-12 06:42:00,
2013-07-12 01:52:00,83.0,67.0,29.82,SSW,205,3.0,12.0,59,0.00,,,0.00,0.000000,,2013-07-12 06:52:00,
2013-07-12 02:02:00,83.0,67.0,29.82,SSW,205,3.0,12.0,59,0.00,,,0.00,0.000000,,2013-07-12 07:02:00,
2013-07-12 02:12:00,83.0,68.0,29.82,SSW,205,1.0,6.0,60,0.00,,,0.00,0.000000,,2013-07-12 07:12:00,
2013-07-12 02:22:00,82.0,67.0,29.82,SSW,198,1.0,8.0,60,0.00,,,0.00,0.000000,,2013-07-12 07:22:00,
2013-07-12 02:32:00,82.0,67.0,29.82,SSW,198,1.0,8.0,60,0.00,,,0.00,0.000000,,2013-07-12 07:32:00,
2013-07-12 02:43:00,82.0,67.0,29.82,WSW,239,3.0,10.0,61,0.00,,,0.00,0.000000,,2013-07-12 07:43:00,
2013-07-12 02:52:00,81.0,66.0,29.82,SW,229,6.0,10.0,61,0.00,,,0.00,0.000000,,2013-07-12 07:52:00,
2013-07-12 03:01:00,81.0,66.0,29.82,SW,229,6.0,10.0,61,0.00,,,0.00,0.000000,,2013-07-12 08:01:00,
2013-07-12 03:11:00,81.0,67.0,29.82,SW,221,4.0,8.0,62,0.00,,,0.00,0.000000,,2013-07-12 08:11:00,
2013-07-12 03:21:00,81.0,67.0,29.82,SW,229,0.0,9.0,63,0.00,,,0.00,0.000000,,2013-07-12 08:21:00,
2013-07-12 03:32:00,81.0,67.0,29.82,SW,229,0.0,9.0,63,0.00,,,0.00,0.000000,,2013-07-12 08:32:00,
2013-07-12 03:42:00,80.0,67.0,29.82,SW,222,3.0,8.0,64,0.00,,,0.00,0.000000,,2013-07-12 08:42:00,
2013-07-12 03:53:00,80.0,67.0,29.82,SW,216,0.0,0.0,65,0.00,,,0.00,0.000000,,2013-07-12 08:53:00,
2013-07-12 04:02:00,80.0,67.0,29.82,SW,216,0.0,0.0,65,0.00,,,0.00,0.000000,,2013-07-12 09:02:00,
2013-07-12 04:12:00,79.0,67.0,29.82,SW,234,0.0,0.0,66,0.00,,,0.00,0.000000,,2013-07-12 09:12:00,
2013-07-12 04:22:00,79.0,67.0,29.82,SW,233,0.0,0.0,67,0.00,,,0.00,0.000000,,2013-07-12 09:22:00,
2013-07-12 04:32:00,79.0,67.0,29.82,SW,233,0.0,0.0,67,0.00,,,0.00,0.000000,,2013-07-12 09:32:00,
2013-07-12 04:42:00,79.0,68.0,29.83,SW,233,0.0,0.0,68,0.00,,,0.00,0.000000,,2013-07-12 09:42:00,
2013-07-12 04:52:00,78.0,67.0,29.82,SW,232,0.0,0.0,70,0.00,,,0.00,0.000000,,2013-07-12 09:52:00,
2013-07-12 05:01:00,78.0,67.0,29.82,SW,232,0.0,0.0,70,0.00,,,0.00,0.000000,,2013-07-12 10:01:00,
2013-07-12 05:11:00,78.0,68.0,29.82,SW,232,0.0,6.0,71,0.00,,,0.00,0.000000,,2013-07-12 10:11:00,
2013-07-12 05:22:00,77.0,67.0,29.82,SW,232,0.0,0.0,72,0.00,,,0.00,0.000000,,2013-07-12 10:22:00,
2013-07-12 05:33:00,77.0,67.0,29.82,SW,232,0.0,0.0,72,0.00,,,0.00,0.000000,,2013-07-12 10:33:00,
2013-07-12 05:42:00,77.0,68.0,29.83,SW,232,0.0,0.0,73,0.00,,,0.00,0.000000,,2013-07-12 10:42:00,
2013-07-12 05:52:00,77.0,68.0,29.83,SW,232,0.0,0.0,73,0.00,,,0.00,0.000000,,2013-07-12 10:52:00,
2013-07-12 06:02:00,77.0,68.0,29.83,SW,232,0.0,0.0,73,0.00,,,0.00,0.000000,,2013-07-12 11:02:00,
2013-07-12 06:11:00,77.0,68.0,29.83,SW,232,0.0,0.0,73,0.00,,,0.00,0.000000,,2013-07-12 11:11:00,
2013-07-12 06:22:00,76.0,67.0,29.83,SW,232,0.0,0.0,74,0.00,,,0.00,0.000000,,2013-07-12 11:22:00,
2013-07-12 06:32:00,76.0,67.0,29.83,SW,232,0.0,0.0,74,0.00,,,0.00,0.000000,,2013-07-12 11:32:00,
2013-07-12 06:43:00,76.0,67.0,29.83,SW,232,0.0,0.0,75,0.00,,,0.00,0.000000,,2013-07-12 11:43:00,
2013-07-12 06:53:00,76.0,67.0,29.83,SW,232,0.0,0.0,75,0.00,,,0.00,0.000000,,2013-07-12 11:53:00,
2013-07-12 07:01:00,76.0,67.0,29.83,SW,232,0.0,0.0,75,0.00,,,0.00,0.000000,,2013-07-12 12:01:00,
2013-07-12 07:11:00,76.0,68.0,29.84,SW,232,0.0,0.0,76,0.00,,,0.00,12.000000,,2013-07-12 12:11:00,
2013-07-12 07:22:00,76.0,68.0,29.84,SW,232,0.0,0.0,76,0.00,,,0.00,28.000000,,2013-07-12 12:22:00,
2013-07-12 07:32:00,76.0,68.0,29.84,SW,232,0.0,0.0,76,0.00,,,0.00,28.000000,,2013-07-12 12:32:00,
2013-07-12 07:43:00,75.0,67.0,29.85,SW,232,0.0,0.0,77,0.00,,,0.00,46.000000,,2013-07-12 12:43:00,
2013-07-12 07:52:00,75.0,68.0,29.85,SW,232,0.0,0.0,78,0.00,,,0.00,74.000000,,2013-07-12 12:52:00,
2013-07-12 08:01:00,75.0,68.0,29.85,SW,232,0.0,0.0,78,0.00,,,0.00,74.000000,,2013-07-12 13:01:00,
2013-07-12 08:12:00,76.0,69.0,29.85,South,181,0.0,0.0,78,0.00,,,0.00,148.000000,,2013-07-12 13:12:00,
2013-07-12 08:22:00,76.0,68.0,29.86,NNW,327,0.0,0.0,77,0.00,,,0.00,229.000000,,2013-07-12 13:22:00,
2013-07-12 08:32:00,76.0,68.0,29.86,NNW,327,0.0,0.0,77,0.00,,,0.00,229.000000,,2013-07-12 13:32:00,
2013-07-12 08:43:00,77.0,68.0,29.86,NW,326,0.0,0.0,75,0.00,,,0.00,255.000000,,2013-07-12 13:43:00,
2013-07-12 08:53:00,78.0,69.0,29.87,NW,326,0.0,0.0,74,0.00,,,0.00,236.000000,,2013-07-12 13:53:00,
2013-07-12 09:02:00,78.0,69.0,29.87,NW,326,0.0,0.0,74,0.00,,,0.00,236.000000,,2013-07-12 14:02:00,
2013-07-12 09:11:00,79.0,70.0,29.86,NW,326,0.0,0.0,73,0.00,,,0.00,304.000000,,2013-07-12 14:11:00,
2013-07-12 09:22:00,80.0,70.0,29.87,West,272,0.0,0.0,71,0.00,,,0.00,214.000000,,2013-07-12 14:22:00,
2013-07-12 09:32:00,80.0,70.0,29.87,West,272,0.0,0.0,71,0.00,,,0.00,214.000000,,2013-07-12 14:32:00,
2013-07-12 09:43:00,82.0,71.0,29.87,SSW,200,1.0,7.0,70,0.00,,,0.00,459.000000,,2013-07-12 14:43:00,
2013-07-12 09:53:00,83.0,71.0,29.86,SSW,199,0.0,7.0,67,0.00,,,0.00,497.000000,,2013-07-12 14:53:00,
2013-07-12 10:01:00,83.0,71.0,29.86,SSW,199,0.0,7.0,67,0.00,,,0.00,497.000000,,2013-07-12 15:01:00,
2013-07-12 10:11:00,84.0,70.0,29.86,SSE,151,2.0,8.0,63,0.00,,,0.00,541.000000,,2013-07-12 15:11:00,
2013-07-12 10:22:00,86.0,71.0,29.86,SSW,204,0.0,8.0,61,0.00,,,0.00,584.000000,,2013-07-12 15:22:00,
2013-07-12 10:33:00,86.0,71.0,29.86,SSW,204,0.0,8.0,61,0.00,,,0.00,584.000000,,2013-07-12 15:33:00,
2013-07-12 10:43:00,88.0,70.0,29.85,SW,219,0.0,7.0,56,0.00,,,0.00,510.000000,,2013-07-12 15:43:00,
2013-07-12 10:52:00,89.0,70.0,29.85,SSW,210,0.0,0.0,53,0.00,,,0.00,243.000000,,2013-07-12 15:52:00,
2013-07-12 11:01:00,89.0,70.0,29.85,SSW,210,0.0,0.0,53,0.00,,,0.00,243.000000,,2013-07-12 16:01:00,
2013-07-12 11:11:00,92.0,69.0,29.85,NW,305,0.0,0.0,48,0.00,,,0.00,88.000000,,2013-07-12 16:11:00,
2013-07-12 11:22:00,92.0,68.0,29.85,SE,136,0.0,1.0,46,0.00,,,0.00,79.000000,,2013-07-12 16:22:00,
2013-07-12 11:32:00,92.0,68.0,29.85,SE,136,0.0,1.0,46,0.00,,,0.00,79.000000,,2013-07-12 16:32:00,
2013-07-12 11:43:00,93.0,69.0,29.85,South,180,0.0,3.0,46,0.00,,,0.00,79.000000,,2013-07-12 16:43:00,
2013-07-12 11:55:00,93.0,68.0,29.85,SSW,194,0.0,6.0,44,0.00,,,0.00,77.000000,,2013-07-12 16:55:00,
2013-07-12 12:05:00,93.0,68.0,29.85,SSW,194,0.0,6.0,44,0.00,,,0.00,77.000000,,2013-07-12 17:05:00,
2013-07-12 12:23:00,92.0,66.0,29.85,ESE,123,3.0,10.0,43,0.00,,,0.00,758.000000,,2013-07-12 17:23:00,
2013-07-12 12:35:00,92.0,66.0,29.85,ESE,123,3.0,10.0,43,0.00,,,0.00,758.000000,,2013-07-12 17:35:00,
2013-07-12 12:44:00,94.0,65.0,29.85,South,185,0.0,8.0,39,0.00,,,0.00,858.000000,,2013-07-12 17:44:00,
2013-07-12 12:53:00,94.0,64.0,29.84,ESE,117,0.0,9.0,38,0.00,,,0.00,867.000000,,2013-07-12 17:53:00,
2013-07-12 13:14:00,95.0,65.0,29.84,NE,44,1.0,7.0,37,0.00,,,0.00,877.000000,,2013-07-12 18:14:00,
2013-07-12 13:25:00,96.0,64.0,29.83,SSE,150,3.0,8.0,35,0.00,,,0.00,919.000000,,2013-07-12 18:25:00,
2013-07-12 13:34:00,96.0,64.0,29.83,SSE,150,3.0,8.0,35,0.00,,,0.00,919.000000,,2013-07-12 18:34:00,
2013-07-12 13:47:00,97.0,64.0,29.83,SE,144,0.0,6.0,34,0.00,,,0.00,895.000000,,2013-07-12 18:47:00,
2013-07-12 13:54:00,98.0,64.0,29.83,ESE,109,0.0,8.0,33,0.00,,,0.00,874.000000,,2013-07-12 18:54:00,
2013-07-12 14:04:00,98.0,64.0,29.83,ESE,109,0.0,8.0,33,0.00,,,0.00,874.000000,,2013-07-12 19:04:00,
2013-07-12 14:14:00,98.0,63.0,29.82,SSE,155,0.0,10.0,32,0.00,,,0.00,798.000000,,2013-07-12 19:14:00,
2013-07-12 14:22:00,99.0,62.0,29.82,SSE,166,4.0,14.0,30,0.00,,,0.00,856.000000,,2013-07-12 19:22:00,
2013-07-12 14:32:00,99.0,62.0,29.82,SSE,166,4.0,14.0,30,0.00,,,0.00,856.000000,,2013-07-12 19:32:00,
2013-07-12 15:02:00,98.0,61.0,29.81,South,188,4.0,14.0,30,0.00,,,0.00,891.000000,,2013-07-12 20:02:00,
2013-07-12 15:13:00,99.0,63.0,29.81,SSE,152,4.0,13.0,31,0.00,,,0.00,868.000000,,2013-07-12 20:13:00,
2013-07-12 15:23:00,98.0,63.0,29.80,SE,130,2.0,13.0,32,0.00,,,0.00,860.000000,,2013-07-12 20:23:00,
2013-07-12 15:33:00,98.0,63.0,29.80,SE,130,2.0,13.0,32,0.00,,,0.00,860.000000,,2013-07-12 20:33:00,
2013-07-12 15:43:00,99.0,64.0,29.80,East,88,3.0,14.0,32,0.00,,,0.00,846.000000,,2013-07-12 20:43:00,
2013-07-12 15:54:00,100.0,65.0,29.80,SSE,167,2.0,10.0,32,0.00,,,0.00,823.000000,,2013-07-12 20:54:00,
2013-07-12 16:02:00,100.0,65.0,29.80,SSE,167,2.0,10.0,32,0.00,,,0.00,823.000000,,2013-07-12 21:02:00,
2013-07-12 16:14:00,100.0,65.0,29.80,SSE,148,0.0,12.0,32,0.00,,,0.00,798.000000,,2013-07-12 21:14:00,
2013-07-12 16:24:00,100.0,65.0,29.80,SSE,148,0.0,12.0,32,0.00,,,0.00,798.000000,,2013-07-12 21:24:00,
2013-07-12 16:33:00,100.0,65.0,29.80,SSE,148,0.0,12.0,32,0.00,,,0.00,798.000000,,2013-07-12 21:33:00,
2013-07-12 16:45:00,99.0,66.0,29.79,SSE,163,1.0,14.0,34,0.00,,,0.00,724.000000,,2013-07-12 21:45:00,
2013-07-12 16:54:00,98.0,65.0,29.79,SE,139,1.0,13.0,34,0.00,,,0.00,686.000000,,2013-07-12 21:54:00,
2013-07-12 17:03:00,98.0,65.0,29.79,SE,139,1.0,13.0,34,0.00,,,0.00,686.000000,,2013-07-12 22:03:00,
2013-07-12 17:15:00,99.0,65.0,29.78,SE,125,0.0,11.0,33,0.00,,,0.00,656.000000,,2013-07-12 22:15:00,
2013-07-12 17:22:00,99.0,64.0,29.78,SE,131,7.0,13.0,32,0.00,,,0.00,631.000000,,2013-07-12 22:22:00,
2013-07-12 17:33:00,99.0,64.0,29.78,SE,131,7.0,13.0,32,0.00,,,0.00,631.000000,,2013-07-12 22:33:00,
2013-07-12 17:44:00,99.0,64.0,29.77,SSE,164,2.0,11.0,32,0.00,,,0.00,573.000000,,2013-07-12 22:44:00,
2013-07-12 18:03:00,99.0,64.0,29.77,SSE,159,2.0,8.0,32,0.00,,,0.00,540.000000,,2013-07-12 23:03:00,
2013-07-12 18:12:00,99.0,64.0,29.77,SE,130,0.0,8.0,32,0.00,,,0.00,497.000000,,2013-07-12 23:12:00,
2013-07-12 18:22:00,99.0,64.0,29.76,ESE,120,1.0,8.0,32,0.00,,,0.00,441.000000,,2013-07-12 23:22:00,
2013-07-12 18:33:00,99.0,64.0,29.76,ESE,120,1.0,8.0,32,0.00,,,0.00,441.000000,,2013-07-12 23:33:00,
2013-07-12 18:43:00,99.0,64.0,29.76,SE,126,4.0,9.0,32,0.00,,,0.00,385.000000,,2013-07-12 23:43:00,
2013-07-12 18:53:00,99.0,64.0,29.76,SSE,149,1.0,8.0,32,0.00,,,0.00,343.000000,,2013-07-12 23:53:00,
2013-07-12 19:04:00,99.0,64.0,29.76,SSE,149,1.0,8.0,32,0.00,,,0.00,343.000000,,2013-07-13 00:04:00,
2013-07-12 19:15:00,99.0,65.0,29.75,SW,225,1.0,8.0,33,0.00,,,0.00,288.000000,,2013-07-13 00:15:00,
2013-07-12 19:32:00,99.0,63.0,29.76,SE,141,5.0,9.0,31,0.00,,,0.00,236.000000,,2013-07-13 00:32:00,
2013-07-12 19:45:00,98.0,63.0,29.76,SE,144,1.0,6.0,32,0.00,,,0.00,186.000000,,2013-07-13 00:45:00,
2013-07-12 19:54:00,98.0,63.0,29.76,SE,144,1.0,6.0,32,0.00,,,0.00,186.000000,,2013-07-13 00:54:00,
2013-07-12 20:12:00,97.0,63.0,29.76,SSW,195,4.0,10.0,33,0.00,,,0.00,135.000000,,2013-07-13 01:12:00,
2013-07-12 20:24:00,97.0,64.0,29.76,SSW,196,0.0,8.0,34,0.00,,,0.00,97.000000,,2013-07-13 01:24:00,
2013-07-12 20:36:00,97.0,64.0,29.76,SSW,196,0.0,8.0,34,0.00,,,0.00,97.000000,,2013-07-13 01:36:00,
2013-07-12 20:45:00,96.0,64.0,29.76,South,184,0.0,0.0,35,0.00,,,0.00,54.000000,,2013-07-13 01:45:00,
2013-07-12 20:56:00,95.0,64.0,29.76,South,183,0.0,0.0,36,0.00,,,0.00,0.000000,,2013-07-13 01:56:00,
2013-07-12 21:04:00,95.0,64.0,29.76,South,183,0.0,0.0,36,0.00,,,0.00,0.000000,,2013-07-13 02:04:00,
2013-07-12 21:14:00,94.0,64.0,29.76,South,184,0.0,0.0,38,0.00,,,0.00,0.000000,,2013-07-13 02:14:00,
2013-07-12 21:22:00,93.0,66.0,29.76,South,184,0.0,0.0,41,0.00,,,0.00,0.000000,,2013-07-13 02:22:00,
2013-07-12 21:35:00,93.0,66.0,29.76,South,184,0.0,0.0,41,0.00,,,0.00,0.000000,,2013-07-13 02:35:00,
2013-07-12 21:46:00,92.0,64.0,29.76,SE,142,0.0,5.0,40,0.00,,,0.00,0.000000,,2013-07-13 02:46:00,
2013-07-12 21:53:00,92.0,65.0,29.76,SSE,159,1.0,8.0,41,0.00,,,0.00,0.000000,,2013-07-13 02:53:00,
2013-07-12 22:04:00,92.0,65.0,29.76,SSE,159,1.0,8.0,41,0.00,,,0.00,0.000000,,2013-07-13 03:04:00,
2013-07-12 22:12:00,91.0,65.0,29.77,South,171,0.0,5.0,42,0.00,,,0.00,0.000000,,2013-07-13 03:12:00,
2013-07-12 22:25:00,91.0,65.0,29.77,SE,140,3.0,8.0,43,0.00,,,0.00,0.000000,,2013-07-13 03:25:00,
2013-07-12 22:44:00,90.0,65.0,29.78,SE,139,3.0,6.0,44,0.00,,,0.00,0.000000,,2013-07-13 03:44:00,
2013-07-12 22:54:00,90.0,66.0,29.79,SSE,150,1.0,8.0,45,0.00,,,0.00,0.000000,,2013-07-13 03:54:00,
2013-07-12 23:01:00,90.0,66.0,29.79,SSE,150,1.0,8.0,45,0.00,,,0.00,0.000000,,2013-07-13 04:01:00,
2013-07-12 23:11:00,89.0,65.0,29.79,SE,142,2.0,7.0,46,0.00,,,0.00,0.000000,,2013-07-13 04:11:00,
2013-07-12 23:22:00,89.0,66.0,29.79,SSW,200,3.0,8.0,47,0.00,,,0.00,0.000000,,2013-07-13 04:22:00,
2013-07-12 23:32:00,89.0,66.0,29.79,SSW,200,3.0,8.0,47,0.00,,,0.00,0.000000,,2013-07-13 04:32:00,
2013-07-12 23:43:00,88.0,66.0,29.80,SE,146,1.0,11.0,48,0.00,,,0.00,0.000000,,2013-07-13 04:43:00,
2013-07-12 23:52:00,88.0,66.0,29.80,South,188,2.0,11.0,49,0.00,,,0.00,0.000000,,2013-07-13 04:52:00,